Time;durP1;ratioP1;P1;durP2;ratioP2;P2;SDS_P1;SDS_P2;PMS_P1;PMS_P2;Temp;Humidity;BMP_temperature;BMP_pressure;BME280_temperature;BME280_humidity;BME280_pressure;Samples;Min_cycle;Max_cycle;Signal;HPM_P1;HPM_P2
2022/04/16 00:01:57;;;;;;;;;;;;;;;;;;5061972;28;1188;-69
2022/04/16 00:04:22;;;;;;;;;;;;;;;;;;5061589;28;1505;-69
2022/04/16 00:06:47;;;;;;;;;;;;;;;;;;5061676;28;1891;-72
2022/04/16 00:09:13;;;;;;;;;;;;;;;;;;5061729;28;823;-69
2022/04/16 00:11:38;;;;;;;;;;;;;;;;;;5061563;28;1242;-69
2022/04/16 00:14:04;;;;;;;;;;;;;;;;;;5061249;28;1556;-68
2022/04/16 00:16:30;;;;;;;;;;;;;;;;;;5061425;28;902;-68
2022/04/16 00:18:58;;;;;;;;;;;;;;;;;;5061593;28;891;-68
2022/04/16 00:21:23;;;;;;;;;;;;;;;;;;5061493;28;1066;-68
2022/04/16 00:23:49;;;;;;;;;;;;;;;;;;5061263;28;1176;-68
2022/04/16 00:26:14;;;;;;;;;;;;;;;;;;5061473;28;1969;-69
2022/04/16 00:28:39;;;;;;;;;;;;;;;;;;5061306;28;1487;-68
2022/04/16 00:31:04;;;;;;;;;;;;;;;;;;5061394;28;815;-68
2022/04/16 00:33:32;;;;;;;;;;;;;;;;;;5061152;28;1447;-68
2022/04/16 00:35:57;;;;;;;;;;;;;;;;;;5061296;28;835;-68
2022/04/16 00:38:22;;;;;;;;;;;;;;;;;;5061501;28;840;-68
2022/04/16 00:40:47;;;;;;;;;;;;;;;;;;5061381;28;827;-68
2022/04/16 00:43:22;;;;;;;;;;;;;;;;;;5060568;28;1267;-68
2022/04/16 00:45:47;;;;;;;;;;;;;;;;;;5060854;28;1549;-68
2022/04/16 00:48:12;;;;;;;;;;;;;;;;;;5061094;28;1890;-68
2022/04/16 00:50:38;;;;;;;;;;;;;;;;;;5061004;28;1557;-67
2022/04/16 00:53:03;;;;;;;;;;;;;;;;;;5061001;28;1192;-67
2022/04/16 00:55:29;;;;;;;;;;;;;;;;;;5060881;28;1517;-68
2022/04/16 00:57:54;;;;;;;;;;;;;;;;;;5061105;28;808;-68
2022/04/16 01:00:19;;;;;;;;;;;;;;;;;;5061526;28;836;-68
2022/04/16 01:02:46;;;;;;;;;;;;;;;;;;5060888;28;1204;-68
2022/04/16 01:05:12;;;;;;;;;;;;;;;;;;5060745;28;1075;-68
2022/04/16 01:07:47;;;;;;;;;;;;;;;;;;5060954;28;1894;-68
2022/04/16 01:10:12;;;;;;;;;;;;;;;;;;5061084;28;828;-68
2022/04/16 01:12:37;;;;;;;;;;;;;;;;;;5060550;28;1192;-68
2022/04/16 01:15:02;;;;;;;;;;;;;;;;;;5060819;28;910;-68
2022/04/16 01:17:28;;;;;;;;;;;;;;;;;;5060669;28;961;-68
2022/04/16 01:19:53;;;;;;;;;;;;;;;;;;5060755;28;1014;-68
2022/04/16 01:22:20;;;;;;;;;;;;;;;;;;5060428;28;1169;-68
2022/04/16 01:24:48;;;;;;;;;;;;;;;;;;5060758;28;886;-68
2022/04/16 01:27:14;;;;;;;;;;;;;;;;;;5060840;28;2398;-68
2022/04/16 01:29:40;;;;;;;;;;;;;;;;;;5060681;28;824;-68
2022/04/16 01:32:06;;;;;;;;;;;;;;;;;;5060131;28;1192;-68
2022/04/16 01:34:32;;;;;;;;;;;;;;;;;;5059259;28;1182;-68
2022/04/16 01:37:01;;;;;;;;;;;;;;;;;;5060431;28;838;-68
2022/04/16 01:39:26;;;;;;;;;;;;;;;;;;5060673;28;855;-68
2022/04/16 01:41:51;;;;;;;;;;;;;;;;;;5060167;28;1187;-68
2022/04/16 01:44:17;;;;;;;;;;;;;;;;;;5061009;28;835;-68
2022/04/16 01:46:42;;;;;;;;;;;;;;;;;;5060109;28;1889;-68
2022/04/16 01:49:09;;;;;;;;;;;;;;;;;;5060655;28;886;-68
2022/04/16 01:51:34;;;;;;;;;;;;;;;;;;5060333;28;1183;-68
2022/04/16 01:53:59;;;;;;;;;;;;;;;;;;5060164;28;824;-68
2022/04/16 01:56:25;;;;;;;;;;;;;;;;;;5062349;28;824;-68
2022/04/16 01:58:50;;;;;;;;;;;;;;;;;;5063816;28;903;-68
2022/04/16 02:01:15;;;;;;;;;;;;;;;;;;5063667;28;899;-68
2022/04/16 02:03:40;;;;;;;;;;;;;;;;;;5063358;28;1212;-68
2022/04/16 02:06:05;;;;;;;;;;;;;;;;;;5063430;28;1886;-67
2022/04/16 02:08:31;;;;;;;;;;;;;;;;;;5063794;28;875;-67
2022/04/16 02:10:56;;;;;;;;;;;;;;;;;;5063430;28;884;-68
2022/04/16 02:13:21;;;;;;;;;;;;;;;;;;5063269;28;1295;-67
2022/04/16 02:15:46;;;;;;;;;;;;;;;;;;5062048;28;1795;-67
2022/04/16 02:18:12;;;;;;;;;;;;;;;;;;5063730;28;756;-67
2022/04/16 02:20:38;;;;;;;;;;;;;;;;;;5063427;28;923;-67
2022/04/16 02:23:04;;;;;;;;;;;;;;;;;;5063134;28;1267;-67
2022/04/16 02:25:29;;;;;;;;;;;;;;;;;;5063408;28;1022;-67
2022/04/16 02:27:54;;;;;;;;;;;;;;;;;;5063555;28;1967;-68
2022/04/16 02:30:19;;;;;;;;;;;;;;;;;;5063257;28;864;-67
2022/04/16 02:32:45;;;;;;;;;;;;;;;;;;5062817;28;1181;-67
2022/04/16 02:35:13;;;;;;;;;;;;;;;;;;5063330;28;887;-67
2022/04/16 02:37:38;;;;;;;;;;;;;;;;;;5063098;28;898;-67
2022/04/16 02:40:04;;;;;;;;;;;;;;;;;;5063187;28;930;-68
2022/04/16 02:42:29;;;;;;;;;;;;;;;;;;5062853;28;1238;-68
2022/04/16 02:47:38;;;;;;;;;;;;;;;;;;5063014;28;1969;-68
2022/04/16 02:50:04;;;;;;;;;;;;;;;;;;5063184;28;887;-68
2022/04/16 02:52:34;;;;;;;;;;;;;;;;;;5063255;28;1310;-67
2022/04/16 02:54:59;;;;;;;;;;;;;;;;;;5062940;28;850;-68
2022/04/16 02:57:25;;;;;;;;;;;;;;;;;;5061544;28;887;-68
2022/04/16 02:59:52;;;;;;;;;;;;;;;;;;5063145;28;895;-67
2022/04/16 03:02:18;;;;;;;;;;;;;;;;;;5062455;28;1259;-67
2022/04/16 03:04:43;;;;;;;;;;;;;;;;;;5062766;28;843;-68
2022/04/16 03:07:08;;;;;;;;;;;;;;;;;;5062047;28;1890;-68
2022/04/16 03:09:34;;;;;;;;;;;;;;;;;;5062571;28;949;-68
2022/04/16 03:11:59;;;;;;;;;;;;;;;;;;5062133;28;1278;-68
2022/04/16 03:19:52;;;;;;;;;;;;;;;;;;5062623;28;659;-68
2022/04/16 03:22:17;;;;;;;;;;;;;;;;;;5062118;28;1156;-68
2022/04/16 03:24:42;;;;;;;;;;;;;;;;;;5062578;28;906;-68
2022/04/16 03:27:07;;;;;;;;;;;;;;;;;;5062230;28;1902;-68
2022/04/16 03:29:34;;;;;;;;;;;;;;;;;;5062382;28;800;-68
2022/04/16 03:31:59;;;;;;;;;;;;;;;;;;5062011;28;1254;-67
2022/04/16 03:34:24;;;;;;;;;;;;;;;;;;5062349;28;851;-68
2022/04/16 03:36:50;;;;;;;;;;;;;;;;;;5062117;28;851;-68
2022/04/16 03:39:15;;;;;;;;;;;;;;;;;;5062140;28;918;-68
2022/04/16 03:41:40;;;;;;;;;;;;;;;;;;5062296;28;1128;-68
2022/04/16 03:44:06;;;;;;;;;;;;;;;;;;5060602;28;1151;-68
2022/04/16 03:46:31;;;;;;;;;;;;;;;;;;5061882;28;1956;-68
2022/04/16 03:48:59;;;;;;;;;;;;;;;;;;5062187;28;878;-68
2022/04/16 03:51:26;;;;;;;;;;;;;;;;;;5062000;28;851;-68
2022/04/16 03:53:51;;;;;;;;;;;;;;;;;;5060298;28;1391;-67
2022/04/16 04:01:45;;;;;;;;;;;;;;;;;;5061659;28;1199;-67
2022/04/16 04:04:10;;;;;;;;;;;;;;;;;;5060483;28;1342;-68
2022/04/16 04:06:36;;;;;;;;;;;;;;;;;;5061700;28;1947;-67
2022/04/16 04:09:01;;;;;;;;;;;;;;;;;;5061774;28;923;-68
2022/04/16 04:11:26;;;;;;;;;;;;;;;;;;5061647;28;895;-68
2022/04/16 04:13:51;;;;;;;;;;;;;;;;;;5061367;28;1205;-68
2022/04/16 04:16:19;;;;;;;;;;;;;;;;;;5061621;28;1057;-67
2022/04/16 04:18:44;;;;;;;;;;;;;;;;;;5060615;28;895;-68
2022/04/16 04:21:09;;;;;;;;;;;;;;;;;;5061582;28;875;-68
2022/04/16 04:23:34;;;;;;;;;;;;;;;;;;5061259;28;1272;-68
2022/04/16 04:25:59;;;;;;;;;;;;;;;;;;5061489;28;1973;-68
2022/04/16 04:28:25;;;;;;;;;;;;;;;;;;5061319;28;926;-68
2022/04/16 04:30:50;;;;;;;;;;;;;;;;;;5061360;28;808;-67
2022/04/16 04:33:15;;;;;;;;;;;;;;;;;;5060965;28;1144;-68
2022/04/16 04:35:40;;;;;;;;;;;;;;;;;;5061361;28;1002;-68
2022/04/16 04:38:05;;;;;;;;;;;;;;;;;;5061337;28;973;-68
2022/04/16 04:40:31;;;;;;;;;;;;;;;;;;5061258;28;843;-68
2022/04/16 04:42:56;;;;;;;;;;;;;;;;;;5060980;28;1188;-68
2022/04/16 04:45:21;;;;;;;;;;;;;;;;;;5061124;28;1009;-68
2022/04/16 04:47:46;;;;;;;;;;;;;;;;;;5061003;28;1979;-68
2022/04/16 04:50:11;;;;;;;;;;;;;;;;;;5061122;28;1120;-68
2022/04/16 04:52:38;;;;;;;;;;;;;;;;;;5060748;28;1172;-68
2022/04/16 04:55:06;;;;;;;;;;;;;;;;;;5061198;28;870;-68
2022/04/16 04:57:31;;;;;;;;;;;;;;;;;;5060929;28;1800;-68
2022/04/16 04:59:56;;;;;;;;;;;;;;;;;;5061204;28;1052;-68
2022/04/16 05:02:21;;;;;;;;;;;;;;;;;;5060538;28;1192;-68
2022/04/16 05:04:47;;;;;;;;;;;;;;;;;;5061289;28;815;-68
2022/04/16 05:07:12;;;;;;;;;;;;;;;;;;5060813;28;1885;-68
2022/04/16 05:09:37;;;;;;;;;;;;;;;;;;5060825;28;827;-68
2022/04/16 05:12:03;;;;;;;;;;;;;;;;;;5060375;28;1188;-68
2022/04/16 05:14:28;;;;;;;;;;;;;;;;;;5060825;28;934;-68
2022/04/16 05:16:53;;;;;;;;;;;;;;;;;;5060706;28;883;-68
2022/04/16 05:19:18;;;;;;;;;;;;;;;;;;5044331;28;1107;-68
2022/04/16 05:21:44;;;;;;;;;;;;;;;;;;5040597;28;1270;-68
2022/04/16 05:24:09;;;;;;;;;;;;;;;;;;5040708;28;994;-68
2022/04/16 05:26:35;;;;;;;;;;;;;;;;;;5040673;28;1965;-68
2022/04/16 05:29:00;;;;;;;;;;;;;;;;;;5040626;28;1065;-68
2022/04/16 05:31:27;;;;;;;;;;;;;;;;;;5044205;28;950;-68
2022/04/16 05:36:37;;;;;;;;;;;;;;;;;;5044489;28;674;-68
2022/04/16 05:39:02;;;;;;;;;;;;;;;;;;5044082;28;994;-68
2022/04/16 05:41:27;;;;;;;;;;;;;;;;;;5044022;28;887;-68
2022/04/16 05:43:53;;;;;;;;;;;;;;;;;;5043917;28;1262;-68
2022/04/16 05:46:18;;;;;;;;;;;;;;;;;;5043836;28;1890;-68
2022/04/16 05:48:43;;;;;;;;;;;;;;;;;;5043931;28;848;-68
2022/04/16 05:51:09;;;;;;;;;;;;;;;;;;5043936;28;946;-68
2022/04/16 05:53:35;;;;;;;;;;;;;;;;;;5043895;28;1156;-68
2022/04/16 05:56:00;;;;;;;;;;;;;;;;;;5043935;28;1006;-68
2022/04/16 05:58:25;;;;;;;;;;;;;;;;;;5043734;28;1037;-68
2022/04/16 06:00:51;;;;;;;;;;;;;;;;;;5042349;28;919;-68
2022/04/16 06:03:16;;;;;;;;;;;;;;;;;;5043563;28;1267;-68
2022/04/16 06:05:41;;;;;;;;;;;;;;;;;;5043723;28;848;-68
2022/04/16 06:08:06;;;;;;;;;;;;;;;;;;5042377;28;1889;-68
2022/04/16 06:10:32;;;;;;;;;;;;;;;;;;5043771;28;833;-68
2022/04/16 06:12:57;;;;;;;;;;;;;;;;;;5043332;28;1282;-67
2022/04/16 06:15:22;;;;;;;;;;;;;;;;;;5043483;28;808;-68
2022/04/16 06:17:48;;;;;;;;;;;;;;;;;;5043530;28;959;-67
2022/04/16 06:20:13;;;;;;;;;;;;;;;;;;5043393;28;970;-67
2022/04/16 06:22:39;;;;;;;;;;;;;;;;;;5043166;28;1172;-67
2022/04/16 06:25:04;;;;;;;;;;;;;;;;;;5043408;28;844;-68
2022/04/16 06:27:29;;;;;;;;;;;;;;;;;;5043382;28;1894;-68
2022/04/16 06:29:55;;;;;;;;;;;;;;;;;;5043238;28;927;-68
2022/04/16 06:32:20;;;;;;;;;;;;;;;;;;5043014;28;1231;-68
2022/04/16 06:34:45;;;;;;;;;;;;;;;;;;5043358;28;934;-68
2022/04/16 06:37:10;;;;;;;;;;;;;;;;;;5043481;28;1005;-68
2022/04/16 06:39:36;;;;;;;;;;;;;;;;;;5041901;28;1056;-68
2022/04/16 06:42:01;;;;;;;;;;;;;;;;;;5042189;28;1168;-68
2022/04/16 06:44:26;;;;;;;;;;;;;;;;;;5043148;28;1013;-68
2022/04/16 06:46:52;;;;;;;;;;;;;;;;;;5042984;28;1894;-68
2022/04/16 06:49:17;;;;;;;;;;;;;;;;;;5043212;28;899;-68
2022/04/16 06:51:42;;;;;;;;;;;;;;;;;;5042740;28;1278;-68
2022/04/16 06:54:08;;;;;;;;;;;;;;;;;;5042956;28;870;-68
2022/04/16 06:56:33;;;;;;;;;;;;;;;;;;5042916;28;860;-68
2022/04/16 06:58:58;;;;;;;;;;;;;;;;;;5042874;28;921;-68
2022/04/16 07:01:24;;;;;;;;;;;;;;;;;;5042810;28;792;-68
2022/04/16 07:03:49;;;;;;;;;;;;;;;;;;5042827;28;1168;-68
2022/04/16 07:06:14;;;;;;;;;;;;;;;;;;5042722;28;1961;-68
2022/04/16 07:08:39;;;;;;;;;;;;;;;;;;5043876;28;1105;-69
2022/04/16 07:11:04;;;;;;;;;;;;;;;;;;5061191;28;1531;-67
2022/04/16 07:13:29;;;;;;;;;;;;;;;;;;5062331;28;1283;-68
2022/04/16 07:15:55;;;;;;;;;;;;;;;;;;5062441;28;816;-67
2022/04/16 07:18:20;;;;;;;;;;;;;;;;;;5062612;28;986;-67
2022/04/16 07:20:46;;;;;;;;;;;;;;;;;;5062625;28;918;-68
2022/04/16 07:23:11;;;;;;;;;;;;;;;;;;5062310;28;1251;-68
2022/04/16 07:25:36;;;;;;;;;;;;;;;;;;5062509;28;859;-68
2022/04/16 07:28:01;;;;;;;;;;;;;;;;;;5062372;28;1894;-68
2022/04/16 07:30:27;;;;;;;;;;;;;;;;;;5061953;28;954;-68
2022/04/16 07:32:52;;;;;;;;;;;;;;;;;;5061965;28;1152;-68
2022/04/16 07:35:18;;;;;;;;;;;;;;;;;;5062564;28;1111;-68
2022/04/16 07:37:43;;;;;;;;;;;;;;;;;;5062423;28;1041;-68
2022/04/16 07:40:08;;;;;;;;;;;;;;;;;;5060916;28;1359;-68
2022/04/16 07:42:34;;;;;;;;;;;;;;;;;;5062022;28;1335;-67
2022/04/16 07:44:59;;;;;;;;;;;;;;;;;;5062081;28;831;-68
2022/04/16 07:47:24;;;;;;;;;;;;;;;;;;5061997;28;1894;-68
2022/04/16 07:49:50;;;;;;;;;;;;;;;;;;5062017;28;986;-67
2022/04/16 07:52:15;;;;;;;;;;;;;;;;;;5061284;28;1152;-68
2022/04/16 07:54:40;;;;;;;;;;;;;;;;;;5061083;28;895;-68
2022/04/16 07:57:06;;;;;;;;;;;;;;;;;;5061925;28;854;-67
2022/04/16 07:59:32;;;;;;;;;;;;;;;;;;5061705;28;832;-68
2022/04/16 08:01:57;;;;;;;;;;;;;;;;;;5061573;28;1259;-67
2022/04/16 08:04:22;;;;;;;;;;;;;;;;;;5062254;28;776;-67
2022/04/16 08:06:47;;;;;;;;;;;;;;;;;;5061634;28;1898;-68
2022/04/16 08:09:13;;;;;;;;;;;;;;;;;;5061662;28;1061;-67
2022/04/16 08:11:38;;;;;;;;;;;;;;;;;;5061553;28;1243;-67
2022/04/16 08:14:04;;;;;;;;;;;;;;;;;;5061397;28;792;-68
2022/04/16 08:16:29;;;;;;;;;;;;;;;;;;5062196;28;816;-68
2022/04/16 08:18:54;;;;;;;;;;;;;;;;;;5061776;28;848;-67
2022/04/16 08:21:20;;;;;;;;;;;;;;;;;;5061452;28;864;-67
2022/04/16 08:23:55;;;;;;;;;;;;;;;;;;5061191;28;1261;-68
2022/04/16 08:26:22;;;;;;;;;;;;;;;;;;5061456;28;1961;-67
2022/04/16 08:28:47;;;;;;;;;;;;;;;;;;5061577;28;815;-68
2022/04/16 08:31:12;;;;;;;;;;;;;;;;;;5061250;28;933;-68
2022/04/16 08:33:37;;;;;;;;;;;;;;;;;;5061256;28;1188;-68
2022/04/16 08:36:02;;;;;;;;;;;;;;;;;;5061187;28;795;-67
2022/04/16 08:38:28;;;;;;;;;;;;;;;;;;5059944;28;1530;-68
2022/04/16 08:40:55;;;;;;;;;;;;;;;;;;5061104;28;930;-68
2022/04/16 08:43:20;;;;;;;;;;;;;;;;;;5060952;28;1258;-67
2022/04/16 08:45:46;;;;;;;;;;;;;;;;;;5059866;28;899;-69
2022/04/16 08:48:14;;;;;;;;;;;;;;;;;;5061131;28;1898;-68
2022/04/16 08:50:39;;;;;;;;;;;;;;;;;;5061029;28;811;-69
2022/04/16 08:53:04;;;;;;;;;;;;;;;;;;5060857;28;1196;-69
2022/04/16 08:55:30;;;;;;;;;;;;;;;;;;5061217;28;1040;-68
2022/04/16 08:57:56;;;;;;;;;;;;;;;;;;5060877;28;835;-68
2022/04/16 09:00:22;;;;;;;;;;;;;;;;;;5060799;28;798;-68
2022/04/16 09:02:57;;;;;;;;;;;;;;;;;;5060724;28;1254;-69
2022/04/16 09:05:24;;;;;;;;;;;;;;;;;;5060477;28;843;-68
2022/04/16 09:07:53;;;;;;;;;;;;;;;;;;5060733;28;1902;-68
2022/04/16 09:10:19;;;;;;;;;;;;;;;;;;5060683;28;859;-68
2022/04/16 09:12:48;;;;;;;;;;;;;;;;;;5060377;28;1184;-69
2022/04/16 09:15:14;;;;;;;;;;;;;;;;;;5060748;28;1005;-68
2022/04/16 09:17:40;;;;;;;;;;;;;;;;;;5060799;28;820;-66
2022/04/16 09:20:14;;;;;;;;;;;;;;;;;;5060179;28;1033;-68
2022/04/16 09:22:40;;;;;;;;;;;;;;;;;;5060427;28;1128;-68
2022/04/16 09:25:19;;;;;;;;;;;;;;;;;;5060590;28;808;-69
2022/04/16 09:27:54;;;;;;;;;;;;;;;;;;5060544;28;1966;-68
2022/04/16 09:30:23;;;;;;;;;;;;;;;;;;5060632;28;902;-68
2022/04/16 09:32:48;;;;;;;;;;;;;;;;;;5060358;28;1192;-68
2022/04/16 09:35:25;;;;;;;;;;;;;;;;;;5059237;28;1183;-67
2022/04/16 09:37:53;;;;;;;;;;;;;;;;;;5060547;28;1114;-69
2022/04/16 09:40:19;;;;;;;;;;;;;;;;;;5060651;28;899;-70
2022/04/16 09:42:50;;;;;;;;;;;;;;;;;;5058945;28;1425;-70
2022/04/16 09:45:16;;;;;;;;;;;;;;;;;;5059238;28;1301;-69
2022/04/16 09:47:42;;;;;;;;;;;;;;;;;;5060450;28;1967;-68
2022/04/16 09:50:07;;;;;;;;;;;;;;;;;;5060213;28;915;-69
2022/04/16 09:52:34;;;;;;;;;;;;;;;;;;5060003;28;1192;-68
2022/04/16 09:55:01;;;;;;;;;;;;;;;;;;5060443;28;911;-68
2022/04/16 09:57:27;;;;;;;;;;;;;;;;;;5060295;28;973;-68
2022/04/16 09:59:54;;;;;;;;;;;;;;;;;;5060275;28;899;-68
2022/04/16 10:02:19;;;;;;;;;;;;;;;;;;5059883;28;1283;-68
2022/04/16 10:04:46;;;;;;;;;;;;;;;;;;5060219;28;824;-70
2022/04/16 10:07:11;;;;;;;;;;;;;;;;;;5060043;28;1894;-69
2022/04/16 10:09:41;;;;;;;;;;;;;;;;;;5060289;28;847;-68
2022/04/16 10:15:00;;;;;;;;;;;;;;;;;;5060247;28;665;-67
2022/04/16 10:17:39;;;;;;;;;;;;;;;;;;5062256;28;902;-68
2022/04/16 10:20:20;;;;;;;;;;;;;;;;;;5063339;28;914;-69
2022/04/16 10:22:52;;;;;;;;;;;;;;;;;;5063089;28;1266;-68
2022/04/16 10:25:26;;;;;;;;;;;;;;;;;;5063532;28;914;-69
2022/04/16 10:27:59;;;;;;;;;;;;;;;;;;5062232;28;1902;-68
2022/04/16 10:30:34;;;;;;;;;;;;;;;;;;5063544;28;777;-68
2022/04/16 10:33:03;;;;;;;;;;;;;;;;;;5062975;28;1148;-68
2022/04/16 10:35:28;;;;;;;;;;;;;;;;;;5063117;28;815;-69
2022/04/16 10:37:54;;;;;;;;;;;;;;;;;;5063134;28;887;-67
2022/04/16 10:40:20;;;;;;;;;;;;;;;;;;5063115;28;855;-67
2022/04/16 10:42:47;;;;;;;;;;;;;;;;;;5062884;28;1196;-68
2022/04/16 10:45:12;;;;;;;;;;;;;;;;;;5063116;28;910;-68
2022/04/16 10:47:41;;;;;;;;;;;;;;;;;;5062932;28;1898;-68
2022/04/16 10:50:17;;;;;;;;;;;;;;;;;;5062897;28;886;-68
2022/04/16 10:52:51;;;;;;;;;;;;;;;;;;5062606;28;1321;-68
2022/04/16 10:55:17;;;;;;;;;;;;;;;;;;5062970;28;835;-68
2022/04/16 10:57:42;;;;;;;;;;;;;;;;;;5063164;28;817;-68
2022/04/16 11:00:13;;;;;;;;;;;;;;;;;;5061517;28;895;-68
2022/04/16 11:02:39;;;;;;;;;;;;;;;;;;5062075;28;1286;-68
2022/04/16 11:05:09;;;;;;;;;;;;;;;;;;5062665;28;1030;-68
2022/04/16 11:07:35;;;;;;;;;;;;;;;;;;5062660;28;1898;-68
2022/04/16 11:10:01;;;;;;;;;;;;;;;;;;5062703;28;1051;-68
2022/04/16 11:12:29;;;;;;;;;;;;;;;;;;5044661;28;1297;-68
2022/04/16 11:14:54;;;;;;;;;;;;;;;;;;5042943;28;769;-67
2022/04/16 11:17:20;;;;;;;;;;;;;;;;;;5042477;28;820;-67
2022/04/16 11:19:45;;;;;;;;;;;;;;;;;;5042475;28;883;-68
2022/04/16 11:22:11;;;;;;;;;;;;;;;;;;5041818;28;1208;-68
2022/04/16 11:24:37;;;;;;;;;;;;;;;;;;5042399;28;886;-68
2022/04/16 11:35:15;;;;;;;;;;;;;;;;;;5042266;28;611;-68
2022/04/16 11:37:40;;;;;;;;;;;;;;;;;;5042217;28;828;-67
2022/04/16 11:40:06;;;;;;;;;;;;;;;;;;5042254;28;820;-68
2022/04/16 11:42:32;;;;;;;;;;;;;;;;;;5041815;28;1204;-69
2022/04/16 11:44:57;;;;;;;;;;;;;;;;;;5042106;28;919;-68
2022/04/16 11:47:24;;;;;;;;;;;;;;;;;;5041926;28;1898;-68
2022/04/16 11:49:51;;;;;;;;;;;;;;;;;;5041970;28;879;-68
2022/04/16 11:52:21;;;;;;;;;;;;;;;;;;5041537;28;1307;-68
2022/04/16 11:54:47;;;;;;;;;;;;;;;;;;5042029;28;1061;-68
2022/04/16 11:57:19;;;;;;;;;;;;;;;;;;5041790;28;851;-68
2022/04/16 11:59:54;;;;;;;;;;;;;;;;;;5041929;28;1612;-68
2022/04/16 12:02:19;;;;;;;;;;;;;;;;;;5041335;28;1286;-68
2022/04/16 12:04:45;;;;;;;;;;;;;;;;;;5041826;28;907;-68
2022/04/16 12:07:11;;;;;;;;;;;;;;;;;;5041702;28;1953;-68
2022/04/16 12:09:36;;;;;;;;;;;;;;;;;;5041734;28;817;-68
2022/04/16 12:12:04;;;;;;;;;;;;;;;;;;5040755;28;1192;-68
2022/04/16 12:14:30;;;;;;;;;;;;;;;;;;5040430;28;1151;-68
2022/04/16 12:16:59;;;;;;;;;;;;;;;;;;5041687;28;886;-67
2022/04/16 12:19:27;;;;;;;;;;;;;;;;;;5040374;28;1202;-68
2022/04/16 12:21:52;;;;;;;;;;;;;;;;;;5041142;28;1259;-68
2022/04/16 12:24:24;;;;;;;;;;;;;;;;;;5041400;28;872;-69
2022/04/16 12:26:50;;;;;;;;;;;;;;;;;;5041652;28;1965;-68
2022/04/16 12:29:16;;;;;;;;;;;;;;;;;;5041542;28;837;-68
2022/04/16 12:31:41;;;;;;;;;;;;;;;;;;5041205;28;1208;-68
2022/04/16 12:34:06;;;;;;;;;;;;;;;;;;5041098;28;816;-68
2022/04/16 12:36:32;;;;;;;;;;;;;;;;;;5041285;28;1068;-68
2022/04/16 12:38:57;;;;;;;;;;;;;;;;;;5040552;28;875;-68
2022/04/16 12:41:22;;;;;;;;;;;;;;;;;;5041186;28;804;-69
2022/04/16 12:43:48;;;;;;;;;;;;;;;;;;5040619;28;1196;-68
2022/04/16 12:46:13;;;;;;;;;;;;;;;;;;5041054;28;836;-68
2022/04/16 12:48:38;;;;;;;;;;;;;;;;;;5041055;28;1944;-68
2022/04/16 12:51:03;;;;;;;;;;;;;;;;;;5041101;28;851;-68
2022/04/16 12:53:29;;;;;;;;;;;;;;;;;;5040852;28;1264;-68
2022/04/16 12:55:54;;;;;;;;;;;;;;;;;;5041001;28;906;-67
2022/04/16 12:58:19;;;;;;;;;;;;;;;;;;5041281;28;859;-68
2022/04/16 13:00:45;;;;;;;;;;;;;;;;;;5040809;28;812;-68
2022/04/16 13:03:10;;;;;;;;;;;;;;;;;;5040612;28;1196;-67
2022/04/16 13:05:35;;;;;;;;;;;;;;;;;;5040856;28;875;-67
2022/04/16 13:08:00;;;;;;;;;;;;;;;;;;5040736;28;1875;-68
2022/04/16 13:10:26;;;;;;;;;;;;;;;;;;5040656;28;859;-67
2022/04/16 13:12:52;;;;;;;;;;;;;;;;;;5040352;28;1282;-68
2022/04/16 13:15:19;;;;;;;;;;;;;;;;;;5040715;28;934;-68
2022/04/16 13:17:44;;;;;;;;;;;;;;;;;;5040629;28;831;-68
2022/04/16 13:20:12;;;;;;;;;;;;;;;;;;5040586;28;994;-68
2022/04/16 13:22:37;;;;;;;;;;;;;;;;;;5040273;28;1207;-67
2022/04/16 13:25:03;;;;;;;;;;;;;;;;;;5041047;28;902;-68
2022/04/16 13:27:28;;;;;;;;;;;;;;;;;;5040562;28;1963;-68
2022/04/16 13:29:53;;;;;;;;;;;;;;;;;;5040661;28;872;-68
2022/04/16 13:32:20;;;;;;;;;;;;;;;;;;5039960;28;1200;-68
2022/04/16 13:34:45;;;;;;;;;;;;;;;;;;5039325;28;883;-68
2022/04/16 13:37:12;;;;;;;;;;;;;;;;;;5040459;28;879;-68
2022/04/16 13:42:21;;;;;;;;;;;;;;;;;;5040440;28;1232;-68
2022/04/16 13:44:47;;;;;;;;;;;;;;;;;;5040430;28;1037;-68
2022/04/16 13:47:12;;;;;;;;;;;;;;;;;;5040256;28;1945;-68
2022/04/16 13:49:37;;;;;;;;;;;;;;;;;;5040476;28;815;-68
2022/04/16 13:52:03;;;;;;;;;;;;;;;;;;5041538;28;1196;-68
2022/04/16 13:54:28;;;;;;;;;;;;;;;;;;5043991;28;792;-68
2022/04/16 13:56:54;;;;;;;;;;;;;;;;;;5043874;28;812;-68
2022/04/16 13:59:19;;;;;;;;;;;;;;;;;;5043655;28;800;-67
2022/04/16 14:01:44;;;;;;;;;;;;;;;;;;5054864;28;1255;-68
2022/04/16 14:04:10;;;;;;;;;;;;;;;;;;5063583;28;870;-68
2022/04/16 14:06:35;;;;;;;;;;;;;;;;;;5063618;28;1964;-68
2022/04/16 14:09:00;;;;;;;;;;;;;;;;;;5063663;28;887;-67
2022/04/16 14:11:26;;;;;;;;;;;;;;;;;;5063483;28;861;-67
2022/04/16 14:13:51;;;;;;;;;;;;;;;;;;5063249;28;1206;-68
2022/04/16 14:16:17;;;;;;;;;;;;;;;;;;5063575;28;824;-68
2022/04/16 14:18:43;;;;;;;;;;;;;;;;;;5063041;28;879;-67
2022/04/16 14:21:08;;;;;;;;;;;;;;;;;;5063485;28;913;-67
2022/04/16 14:23:34;;;;;;;;;;;;;;;;;;5063001;28;1192;-68
2022/04/16 14:26:00;;;;;;;;;;;;;;;;;;5063319;28;823;-68
2022/04/16 14:28:25;;;;;;;;;;;;;;;;;;5061932;28;1972;-67
2022/04/16 14:30:50;;;;;;;;;;;;;;;;;;5063263;28;784;-67
2022/04/16 14:33:16;;;;;;;;;;;;;;;;;;5063078;28;1204;-67
2022/04/16 14:35:41;;;;;;;;;;;;;;;;;;5063144;28;859;-68
2022/04/16 14:38:12;;;;;;;;;;;;;;;;;;5063062;28;879;-67
2022/04/16 14:40:38;;;;;;;;;;;;;;;;;;5063056;28;851;-67
2022/04/16 14:43:03;;;;;;;;;;;;;;;;;;5062903;28;1216;-67
2022/04/16 14:45:29;;;;;;;;;;;;;;;;;;5063010;28;808;-67
2022/04/16 14:47:54;;;;;;;;;;;;;;;;;;5062849;28;1910;-68
2022/04/16 14:50:19;;;;;;;;;;;;;;;;;;5061694;28;1191;-68
2022/04/16 14:52:44;;;;;;;;;;;;;;;;;;5062677;28;1243;-68
2022/04/16 14:55:10;;;;;;;;;;;;;;;;;;5061578;28;907;-68
2022/04/16 14:57:35;;;;;;;;;;;;;;;;;;5062832;28;749;-68
2022/04/16 15:00:00;;;;;;;;;;;;;;;;;;5062812;28;816;-67
2022/04/16 15:02:25;;;;;;;;;;;;;;;;;;5061781;28;1286;-68
2022/04/16 15:04:51;;;;;;;;;;;;;;;;;;5062758;28;844;-68
2022/04/16 15:07:18;;;;;;;;;;;;;;;;;;5062572;28;1906;-68
2022/04/16 15:09:44;;;;;;;;;;;;;;;;;;5062271;28;914;-68
2022/04/16 15:12:09;;;;;;;;;;;;;;;;;;5062208;28;1200;-68
2022/04/16 15:14:35;;;;;;;;;;;;;;;;;;5062577;28;796;-68
2022/04/16 15:17:00;;;;;;;;;;;;;;;;;;5062462;28;803;-69
2022/04/16 15:19:25;;;;;;;;;;;;;;;;;;5062539;28;970;-68
2022/04/16 15:21:51;;;;;;;;;;;;;;;;;;5062151;28;1284;-68
2022/04/16 15:24:17;;;;;;;;;;;;;;;;;;5062378;28;910;-68
2022/04/16 15:26:42;;;;;;;;;;;;;;;;;;5062399;28;1959;-69
2022/04/16 15:29:07;;;;;;;;;;;;;;;;;;5062354;28;839;-69
2022/04/16 15:31:40;;;;;;;;;;;;;;;;;;5062208;28;1236;-68
2022/04/16 15:34:08;;;;;;;;;;;;;;;;;;5062136;28;887;-69
2022/04/16 15:36:34;;;;;;;;;;;;;;;;;;5062175;28;906;-68
2022/04/16 15:39:00;;;;;;;;;;;;;;;;;;5062265;28;927;-68
2022/04/16 15:41:25;;;;;;;;;;;;;;;;;;5062279;28;903;-68
2022/04/16 15:43:51;;;;;;;;;;;;;;;;;;5061837;28;1259;-69
2022/04/16 15:46:16;;;;;;;;;;;;;;;;;;5061990;28;847;-68
2022/04/16 15:48:42;;;;;;;;;;;;;;;;;;5061989;28;1967;-68
2022/04/16 15:51:07;;;;;;;;;;;;;;;;;;5061981;28;993;-68
2022/04/16 15:53:33;;;;;;;;;;;;;;;;;;5060466;28;1420;-68
2022/04/16 15:55:58;;;;;;;;;;;;;;;;;;5062238;28;922;-68
2022/04/16 15:58:23;;;;;;;;;;;;;;;;;;5061279;28;1046;-68
2022/04/16 16:00:48;;;;;;;;;;;;;;;;;;5061754;28;926;-68
2022/04/16 16:03:14;;;;;;;;;;;;;;;;;;5061441;28;1192;-68
2022/04/16 16:05:39;;;;;;;;;;;;;;;;;;5061834;28;898;-68
2022/04/16 16:08:05;;;;;;;;;;;;;;;;;;5061870;28;1894;-68
2022/04/16 16:10:30;;;;;;;;;;;;;;;;;;5060243;28;1007;-68
2022/04/16 16:12:55;;;;;;;;;;;;;;;;;;5061162;28;1203;-68
2022/04/16 16:15:21;;;;;;;;;;;;;;;;;;5060583;28;862;-68
2022/04/16 16:17:47;;;;;;;;;;;;;;;;;;5061907;28;820;-68
2022/04/16 16:20:14;;;;;;;;;;;;;;;;;;5060195;28;1192;-68
2022/04/16 16:22:39;;;;;;;;;;;;;;;;;;5061356;28;1133;-67
2022/04/16 16:25:05;;;;;;;;;;;;;;;;;;5061454;28;835;-67
2022/04/16 16:27:30;;;;;;;;;;;;;;;;;;5061436;28;1910;-68
2022/04/16 16:29:57;;;;;;;;;;;;;;;;;;5061191;28;1264;-67
2022/04/16 16:32:25;;;;;;;;;;;;;;;;;;5061118;28;1292;-68
2022/04/16 16:34:50;;;;;;;;;;;;;;;;;;5061527;28;915;-68
2022/04/16 16:37:15;;;;;;;;;;;;;;;;;;5061287;28;875;-68
2022/04/16 16:39:41;;;;;;;;;;;;;;;;;;5061301;28;831;-68
2022/04/16 16:42:06;;;;;;;;;;;;;;;;;;5061007;28;1290;-68
2022/04/16 16:44:32;;;;;;;;;;;;;;;;;;5061096;28;855;-68
2022/04/16 16:46:57;;;;;;;;;;;;;;;;;;5061160;28;1898;-68
2022/04/16 16:49:22;;;;;;;;;;;;;;;;;;5061134;28;1065;-67
2022/04/16 16:51:51;;;;;;;;;;;;;;;;;;5060749;28;1275;-68
2022/04/16 16:54:17;;;;;;;;;;;;;;;;;;5061226;28;962;-68
2022/04/16 16:56:42;;;;;;;;;;;;;;;;;;5061066;28;867;-68
2022/04/16 16:59:07;;;;;;;;;;;;;;;;;;5060908;28;1065;-68
2022/04/16 17:01:33;;;;;;;;;;;;;;;;;;5060795;28;1193;-67
2022/04/16 17:06:42;;;;;;;;;;;;;;;;;;5060815;28;1902;-68
2022/04/16 17:09:08;;;;;;;;;;;;;;;;;;5061230;28;760;-67
2022/04/16 17:11:33;;;;;;;;;;;;;;;;;;5060544;28;1172;-67
2022/04/16 17:18:38;;;;;;;;;;;;;;;;;;5060631;28;859;-68
2022/04/16 17:19:27;;;;;;;;;;;;;;;;;;5060705;28;1160;-68
2022/04/16 17:21:52;;;;;;;;;;;;;;;;;;5060448;28;1196;-68
2022/04/16 17:24:17;;;;;;;;;;;;;;;;;;5060691;28;836;-68
2022/04/16 17:26:43;;;;;;;;;;;;;;;;;;5063179;28;1966;-69
2022/04/16 17:29:08;;;;;;;;;;;;;;;;;;5062393;28;867;-68
2022/04/16 17:31:33;;;;;;;;;;;;;;;;;;5064235;28;1196;-68
2022/04/16 17:33:58;;;;;;;;;;;;;;;;;;5064030;28;1025;-69
2022/04/16 17:36:24;;;;;;;;;;;;;;;;;;5064165;28;836;-68
2022/04/16 17:38:49;;;;;;;;;;;;;;;;;;5064087;28;887;-68
2022/04/16 17:41:15;;;;;;;;;;;;;;;;;;5064164;28;835;-69